Time;durP1;ratioP1;P1;durP2;ratioP2;P2;SDS_P1;SDS_P2;PMS_P1;PMS_P2;Temp;Humidity;BMP_temperature;BMP_pressure;BME280_temperature;BME280_humidity;BME280_pressure;Samples;Min_cycle;Max_cycle;Signal;HPM_P1;HPM_P2
2021/07/19 00:02:10;;;;;;;5.85;3.08;;;17.60;99.90;;;;;;5030539;28;20037;-62
2021/07/19 00:04:44;;;;;;;8.63;3.78;;;17.50;99.90;;;;;;5028416;28;20033;-62
2021/07/19 00:07:12;;;;;;;7.82;3.75;;;17.50;99.90;;;;;;5027910;28;20529;-62
2021/07/19 00:09:37;;;;;;;8.32;3.53;;;17.40;99.90;;;;;;5024711;28;20041;-62
2021/07/19 00:12:05;;;;;;;5.07;3.40;;;17.40;99.90;;;;;;5010499;28;20040;-62
2021/07/19 00:14:32;;;;;;;7.53;3.97;;;17.30;99.90;;;;;;5029279;28;20049;-60
2021/07/19 00:16:58;;;;;;;5.25;3.30;;;17.20;99.90;;;;;;5007549;28;20037;-61
2021/07/19 00:19:24;;;;;;;7.63;3.88;;;17.20;99.90;;;;;;5026546;28;20033;-62
2021/07/19 00:21:50;;;;;;;4.78;3.30;;;17.10;99.90;;;;;;5025896;28;20516;-63
2021/07/19 00:24:16;;;;;;;8.18;3.78;;;17.00;99.90;;;;;;5028128;28;20041;-62
2021/07/19 00:26:41;;;;;;;5.35;3.45;;;17.00;99.90;;;;;;5007692;28;20041;-62
2021/07/19 00:29:07;;;;;;;6.53;3.53;;;16.90;99.90;;;;;;5028713;28;20077;-62
2021/07/19 00:31:34;;;;;;;7.03;3.90;;;16.90;99.90;;;;;;5026320;28;20052;-62
2021/07/19 00:34:01;;;;;;;6.43;3.42;;;16.90;99.90;;;;;;5023518;28;20400;-62
2021/07/19 00:36:27;;;;;;;8.77;3.85;;;16.90;99.90;;;;;;5019163;28;20498;-62
2021/07/19 00:38:53;;;;;;;8.80;4.35;;;16.90;99.90;;;;;;5025217;28;20100;-62
2021/07/19 00:41:20;;;;;;;9.95;3.67;;;16.90;99.90;;;;;;5019907;28;20837;-62
2021/07/19 00:43:46;;;;;;;10.20;4.45;;;16.90;99.90;;;;;;5028710;28;20116;-61
2021/07/19 00:46:11;;;;;;;7.63;3.55;;;16.90;99.90;;;;;;5026955;28;20100;-62
2021/07/19 00:48:37;;;;;;;5.75;3.88;;;16.90;99.90;;;;;;5018078;28;20114;-63
2021/07/19 00:51:04;;;;;;;11.43;4.45;;;16.90;99.90;;;;;;5005613;28;20057;-62
2021/07/19 00:53:30;;;;;;;4.32;3.70;;;16.90;99.90;;;;;;4997528;28;20033;-62
2021/07/19 00:55:56;;;;;;;7.55;4.03;;;16.90;99.90;;;;;;5024828;28;20053;-62
2021/07/19 00:58:25;;;;;;;10.35;4.22;;;16.80;99.90;;;;;;5028873;28;20021;-62
2021/07/19 01:00:55;;;;;;;8.55;4.15;;;16.80;99.90;;;;;;5026838;28;20067;-61
2021/07/19 01:03:23;;;;;;;8.65;3.83;;;16.80;99.90;;;;;;5026917;28;20056;-62
2021/07/19 01:05:50;;;;;;;13.02;4.75;;;16.80;99.90;;;;;;5028905;28;20030;-62
2021/07/19 01:08:18;;;;;;;6.68;4.45;;;16.80;99.90;;;;;;5028419;28;20038;-62
2021/07/19 01:10:44;;;;;;;10.13;4.30;;;16.70;99.90;;;;;;5023529;28;20030;-62
2021/07/19 01:13:09;;;;;;;13.57;4.50;;;16.70;99.90;;;;;;5031476;28;20087;-62
2021/07/19 01:15:37;;;;;;;13.10;4.38;;;16.70;99.90;;;;;;5027839;28;20521;-62
2021/07/19 01:18:04;;;;;;;7.20;4.78;;;16.60;99.90;;;;;;5012188;28;20128;-62
2021/07/19 01:20:48;;;;;;;17.60;4.57;;;16.60;99.90;;;;;;5025636;28;20037;-63
2021/07/19 01:23:41;;;;;;;9.02;4.30;;;16.50;99.90;;;;;;5030700;28;20117;-62
2021/07/19 01:26:44;;;;;;;8.30;5.03;;;16.40;99.90;;;;;;5029225;28;20041;-60
2021/07/19 01:29:13;;;;;;;8.40;4.93;;;16.30;99.90;;;;;;5029819;28;20025;-62
2021/07/19 01:31:43;;;;;;;6.78;4.80;;;16.30;99.90;;;;;;5026561;28;20394;-62
2021/07/19 01:34:12;;;;;;;11.52;5.70;;;16.30;99.90;;;;;;5027541;28;20025;-62
2021/07/19 01:36:43;;;;;;;7.95;5.32;;;16.30;99.90;;;;;;5031602;28;20466;-62
2021/07/19 01:39:09;;;;;;;10.13;5.47;;;16.20;99.90;;;;;;5031342;28;20028;-63
2021/07/19 01:41:36;;;;;;;8.63;5.15;;;16.20;99.90;;;;;;5029049;28;20030;-62
2021/07/19 01:44:05;;;;;;;10.48;5.20;;;16.20;99.90;;;;;;5026584;28;20038;-62
2021/07/19 01:46:31;;;;;;;8.23;5.22;;;16.20;99.90;;;;;;5027128;28;20048;-63
2021/07/19 01:48:57;;;;;;;9.05;4.75;;;16.20;99.90;;;;;;5024999;28;20515;-62
2021/07/19 01:51:25;;;;;;;9.85;4.28;;;16.10;99.90;;;;;;5025972;28;20045;-62
2021/07/19 01:53:51;;;;;;;11.52;5.88;;;16.10;99.90;;;;;;5026550;28;20402;-62
2021/07/19 01:56:18;;;;;;;9.02;4.95;;;16.00;99.90;;;;;;5018600;28;20449;-61
2021/07/19 01:58:45;;;;;;;7.05;5.40;;;16.00;99.90;;;;;;5017577;28;20116;-61
2021/07/19 02:01:11;;;;;;;8.48;5.15;;;16.00;99.90;;;;;;5018400;28;20068;-61
2021/07/19 02:03:37;;;;;;;14.98;5.43;;;16.00;99.90;;;;;;5018591;28;21594;-62
2021/07/19 02:06:05;;;;;;;11.23;5.32;;;16.00;99.90;;;;;;5002093;28;20079;-60
2021/07/19 02:08:32;;;;;;;11.05;5.57;;;16.00;99.90;;;;;;5017197;28;20045;-62
2021/07/19 02:10:58;;;;;;;8.27;5.30;;;16.00;99.90;;;;;;5018572;28;20040;-62
2021/07/19 02:13:26;;;;;;;10.10;4.88;;;16.00;99.90;;;;;;5017854;28;20443;-62
2021/07/19 02:15:54;;;;;;;13.43;5.93;;;15.90;99.90;;;;;;5017270;28;20099;-62
2021/07/19 02:18:23;;;;;;;10.25;5.97;;;15.90;99.90;;;;;;4990445;28;20038;-62
2021/07/19 02:20:52;;;;;;;8.02;5.22;;;15.90;99.90;;;;;;5000197;28;20616;-63
2021/07/19 02:23:19;;;;;;;10.68;5.35;;;15.80;99.90;;;;;;5019166;28;20030;-62
2021/07/19 02:25:46;;;;;;;13.27;6.30;;;15.70;99.90;;;;;;5016233;28;20521;-63
2021/07/19 02:28:13;;;;;;;9.95;5.97;;;15.70;99.90;;;;;;5018197;28;20748;-62
2021/07/19 02:30:43;;;;;;;9.65;5.45;;;15.70;99.90;;;;;;5024881;28;20040;-62
2021/07/19 02:33:12;;;;;;;14.73;5.82;;;15.70;99.90;;;;;;5027335;28;20072;-63
2021/07/19 02:35:38;;;;;;;11.95;6.43;;;15.60;99.90;;;;;;5025432;28;20045;-62
2021/07/19 02:38:07;;;;;;;11.40;6.32;;;15.60;99.90;;;;;;5021974;28;20121;-62
2021/07/19 02:40:33;;;;;;;9.25;6.45;;;15.60;99.90;;;;;;5016727;28;20518;-62
2021/07/19 02:43:04;;;;;;;13.20;6.30;;;15.60;99.90;;;;;;5017536;28;20057;-62
2021/07/19 02:45:35;;;;;;;12.35;6.45;;;15.60;99.90;;;;;;5017390;28;20038;-63
2021/07/19 02:48:03;;;;;;;11.35;6.30;;;15.60;99.90;;;;;;5017496;28;20632;-62
2021/07/19 02:50:30;;;;;;;10.80;6.40;;;15.50;99.90;;;;;;5017816;28;20041;-61
2021/07/19 02:52:58;;;;;;;18.65;6.50;;;15.50;99.90;;;;;;5018588;28;20116;-63
2021/07/19 02:55:24;;;;;;;14.90;6.50;;;15.50;99.90;;;;;;5017577;28;20021;-62
2021/07/19 02:57:50;;;;;;;13.35;6.80;;;15.50;99.90;;;;;;5018279;28;20021;-63
2021/07/19 03:00:18;;;;;;;10.10;6.28;;;15.40;99.90;;;;;;5017427;28;20526;-62
2021/07/19 03:02:49;;;;;;;12.25;7.32;;;15.40;99.90;;;;;;5017292;28;20558;-63
2021/07/19 03:05:19;;;;;;;9.30;6.95;;;15.50;99.90;;;;;;5014114;28;20037;-63
2021/07/19 03:07:51;;;;;;;12.45;7.07;;;15.40;99.90;;;;;;5015531;28;20129;-62
2021/07/19 03:10:20;;;;;;;15.02;7.60;;;15.40;99.90;;;;;;5019006;28;20102;-62
2021/07/19 03:12:48;;;;;;;13.77;7.53;;;15.40;99.90;;;;;;5023515;28;20030;-61
2021/07/19 03:15:14;;;;;;;12.85;7.25;;;15.40;99.90;;;;;;5003554;28;20465;-62
2021/07/19 03:17:40;;;;;;;17.83;7.15;;;15.30;99.90;;;;;;5001952;28;20042;-62
2021/07/19 03:20:08;;;;;;;20.02;7.68;;;15.30;99.90;;;;;;5017903;28;20129;-63
2021/07/19 03:22:38;;;;;;;15.75;7.30;;;15.30;99.90;;;;;;5015624;28;20034;-62
2021/07/19 03:25:05;;;;;;;15.57;6.97;;;15.30;99.90;;;;;;5015236;28;20113;-62
2021/07/19 03:27:32;;;;;;;22.98;7.50;;;15.30;99.90;;;;;;5020276;28;20103;-62
2021/07/19 03:29:59;;;;;;;14.02;6.97;;;15.30;99.90;;;;;;4998454;28;20034;-62
2021/07/19 03:32:24;;;;;;;16.73;7.47;;;15.30;99.90;;;;;;5016765;28;20040;-62
2021/07/19 03:34:52;;;;;;;14.95;7.50;;;15.20;99.90;;;;;;5014745;28;20033;-62
2021/07/19 03:37:20;;;;;;;13.88;5.97;;;15.20;99.90;;;;;;5016037;28;20408;-62
2021/07/19 03:39:47;;;;;;;10.68;6.97;;;15.10;99.90;;;;;;5018616;28;20033;-62
2021/07/19 03:42:13;;;;;;;22.33;7.40;;;15.10;99.90;;;;;;5019812;28;20038;-62
2021/07/19 03:44:40;;;;;;;18.30;7.53;;;15.00;99.90;;;;;;5018831;28;20021;-62
2021/07/19 03:47:09;;;;;;;18.42;7.43;;;15.00;99.90;;;;;;5019780;28;20025;-61
2021/07/19 03:49:36;;;;;;;14.00;7.80;;;15.10;99.90;;;;;;5017830;28;20056;-63
2021/07/19 03:52:03;;;;;;;13.82;6.95;;;15.00;99.90;;;;;;5019312;28;20034;-62
2021/07/19 03:54:28;;;;;;;14.82;7.25;;;15.00;99.90;;;;;;5017502;28;20029;-60
2021/07/19 03:56:55;;;;;;;23.80;7.80;;;15.00;99.90;;;;;;5026592;28;20403;-62
2021/07/19 03:59:23;;;;;;;10.80;6.97;;;15.00;99.90;;;;;;5016750;28;20414;-62
2021/07/19 04:01:51;;;;;;;13.35;7.10;;;15.10;99.90;;;;;;5014215;28;20044;-62
2021/07/19 04:04:29;;;;;;;11.02;7.15;;;15.10;99.90;;;;;;5013578;28;20029;-62
2021/07/19 04:06:56;;;;;;;13.32;6.75;;;15.10;99.90;;;;;;5015972;28;20046;-62
2021/07/19 04:09:21;;;;;;;19.55;8.15;;;15.20;99.90;;;;;;5016315;28;20448;-63
2021/07/19 04:11:48;;;;;;;20.45;7.97;;;15.20;99.90;;;;;;4998690;28;20112;-62
2021/07/19 04:14:14;;;;;;;13.10;7.15;;;15.30;99.90;;;;;;5016120;28;20076;-62
2021/07/19 04:16:39;;;;;;;14.93;7.30;;;15.30;99.90;;;;;;5015469;28;20127;-62
2021/07/19 04:19:05;;;;;;;12.77;7.63;;;15.40;99.90;;;;;;4997550;28;20759;-62
2021/07/19 04:21:33;;;;;;;14.13;7.65;;;15.40;99.90;;;;;;5019622;28;20060;-62
2021/07/19 04:23:59;;;;;;;13.02;7.10;;;15.40;99.90;;;;;;4995074;28;20045;-62
2021/07/19 04:26:26;;;;;;;14.82;7.95;;;15.50;99.90;;;;;;5015124;28;20546;-61
2021/07/19 04:28:53;;;;;;;17.42;7.50;;;15.50;99.90;;;;;;5013993;28;20033;-62
2021/07/19 04:31:18;;;;;;;11.70;7.07;;;15.50;99.90;;;;;;5018553;28;20029;-62
2021/07/19 04:33:49;;;;;;;11.55;6.35;;;15.60;99.90;;;;;;5016568;28;20104;-62
2021/07/19 04:36:17;;;;;;;12.68;5.90;;;15.70;99.90;;;;;;4999209;28;20497;-62
2021/07/19 04:38:46;;;;;;;14.82;5.85;;;16.10;99.90;;;;;;5014052;28;20133;-61
2021/07/19 04:41:11;;;;;;;11.57;5.30;;;16.80;99.90;;;;;;4998764;28;20032;-62
2021/07/19 04:43:37;;;;;;;5.63;4.78;;;17.70;99.90;;;;;;5014953;28;20033;-62
2021/07/19 04:46:03;;;;;;;6.40;3.88;;;18.50;99.90;;;;;;5016882;28;20119;-63
2021/07/19 04:48:29;;;;;;;11.10;3.97;;;19.60;99.90;;;;;;5015138;28;20029;-62
2021/07/19 04:50:55;;;;;;;9.48;3.97;;;20.50;99.90;;;;;;5016982;28;20737;-63
2021/07/19 04:53:20;;;;;;;8.60;3.88;;;20.80;99.90;;;;;;5017708;28;20030;-63
2021/07/19 04:55:49;;;;;;;8.43;3.70;;;21.80;99.90;;;;;;5017467;28;20029;-62
2021/07/19 04:58:18;;;;;;;6.47;2.55;;;22.60;99.90;;;;;;5017931;28;20026;-63
2021/07/19 05:00:47;;;;;;;7.47;2.95;;;23.00;99.90;;;;;;5015804;28;20828;-63
2021/07/19 05:03:14;;;;;;;6.53;3.10;;;23.10;99.90;;;;;;5014352;28;20509;-63
2021/07/19 05:05:41;;;;;;;7.15;3.30;;;23.70;99.90;;;;;;5014582;28;20067;-63
2021/07/19 05:08:07;;;;;;;10.35;3.30;;;24.00;99.40;;;;;;5014231;28;20168;-63
2021/07/19 05:10:34;;;;;;;5.90;2.90;;;25.00;97.10;;;;;;5015448;28;20465;-63
2021/07/19 05:13:00;;;;;;;6.47;3.25;;;25.60;95.90;;;;;;4996291;28;20036;-63
2021/07/19 05:15:26;;;;;;;8.30;3.05;;;26.10;94.60;;;;;;5014497;28;20423;-63
2021/07/19 05:17:52;;;;;;;7.38;3.30;;;26.50;93.70;;;;;;5014059;28;20061;-63
2021/07/19 05:20:22;;;;;;;8.50;2.85;;;26.30;93.40;;;;;;4998301;28;20045;-63
2021/07/19 05:22:49;;;;;;;11.63;3.10;;;26.10;93.10;;;;;;5015129;28;20041;-63
2021/07/19 05:25:15;;;;;;;6.55;2.90;;;26.30;93.50;;;;;;5017321;28;20041;-64
2021/07/19 05:28:03;;;;;;;6.72;3.03;;;26.90;92.70;;;;;;5014543;28;20022;-64
2021/07/19 05:30:29;;;;;;;7.22;2.80;;;26.80;91.80;;;;;;5015078;28;20043;-64
2021/07/19 05:32:55;;;;;;;5.85;2.78;;;27.00;90.60;;;;;;5000686;28;20522;-63
2021/07/19 05:35:22;;;;;;;6.68;3.35;;;28.10;88.90;;;;;;5014938;28;20108;-63
2021/07/19 05:37:48;;;;;;;6.28;2.85;;;28.80;86.30;;;;;;5015308;28;20198;-64
2021/07/19 05:40:15;;;;;;;5.25;2.60;;;27.90;86.80;;;;;;5018437;28;20071;-64
2021/07/19 05:42:41;;;;;;;4.45;2.42;;;27.90;86.50;;;;;;5013947;28;20826;-64
2021/07/19 05:45:11;;;;;;;7.38;3.13;;;28.10;84.90;;;;;;5015566;28;20033;-64
2021/07/19 05:47:37;;;;;;;7.43;2.75;;;26.50;87.50;;;;;;5014354;28;20029;-64
2021/07/19 05:50:05;;;;;;;7.50;2.97;;;24.70;91.00;;;;;;5016047;28;20037;-63
2021/07/19 05:52:30;;;;;;;6.28;3.50;;;23.30;93.80;;;;;;5015306;28;20112;-63
2021/07/19 05:54:56;;;;;;;9.38;3.42;;;21.90;97.00;;;;;;5014259;28;20037;-63
2021/07/19 05:57:24;;;;;;;6.40;3.45;;;20.90;99.60;;;;;;5026291;28;20033;-62
2021/07/19 05:59:50;;;;;;;7.55;3.80;;;20.10;99.90;;;;;;5028526;28;20048;-63
2021/07/19 06:02:17;;;;;;;9.52;3.50;;;19.70;99.90;;;;;;5023889;28;20033;-62
2021/07/19 06:04:43;;;;;;;6.07;4.00;;;19.50;99.90;;;;;;5025603;28;20033;-63
2021/07/19 06:07:09;;;;;;;6.18;4.22;;;19.20;99.90;;;;;;5031662;28;20037;-62
2021/07/19 06:09:35;;;;;;;5.80;4.15;;;19.20;99.90;;;;;;5027377;28;20064;-65
2021/07/19 06:12:00;;;;;;;12.77;4.28;;;19.20;99.90;;;;;;5030070;28;20041;-62
2021/07/19 06:14:26;;;;;;;7.50;4.63;;;19.30;99.90;;;;;;5030401;28;20396;-62
2021/07/19 06:16:52;;;;;;;9.80;3.90;;;19.50;99.90;;;;;;5030886;28;20439;-63
2021/07/19 06:19:18;;;;;;;10.45;4.22;;;19.80;99.90;;;;;;5009150;28;20044;-62
2021/07/19 06:21:44;;;;;;;8.13;4.10;;;19.90;99.90;;;;;;5029787;28;20124;-64
2021/07/19 06:24:09;;;;;;;13.10;4.78;;;20.10;99.90;;;;;;5029949;28;20029;-60
2021/07/19 06:26:35;;;;;;;7.93;4.80;;;20.20;99.90;;;;;;5013807;28;20091;-63
2021/07/19 06:29:01;;;;;;;8.82;4.43;;;20.10;99.90;;;;;;5030908;28;20483;-63
2021/07/19 06:31:27;;;;;;;9.57;3.95;;;20.10;99.90;;;;;;5031968;28;20095;-64
2021/07/19 06:33:52;;;;;;;12.13;4.88;;;20.20;99.90;;;;;;5030057;28;20497;-64
2021/07/19 06:36:18;;;;;;;9.10;4.07;;;21.00;99.90;;;;;;5030269;28;20053;-64
2021/07/19 06:38:44;;;;;;;8.13;4.10;;;22.90;99.90;;;;;;5027951;28;20021;-63
2021/07/19 06:41:12;;;;;;;8.63;4.63;;;24.70;96.80;;;;;;5031265;28;20390;-63
2021/07/19 06:43:41;;;;;;;5.95;3.42;;;25.60;93.90;;;;;;5030018;28;20045;-64
2021/07/19 06:46:06;;;;;;;6.03;4.30;;;25.10;94.10;;;;;;5027985;28;20025;-63
2021/07/19 06:48:33;;;;;;;9.68;4.68;;;24.20;93.60;;;;;;5025451;28;20449;-63
2021/07/19 06:51:00;;;;;;;7.10;4.63;;;23.20;96.70;;;;;;5011047;28;21695;-64
2021/07/19 06:53:26;;;;;;;7.18;4.40;;;22.80;96.90;;;;;;5030096;28;20044;-63
2021/07/19 06:55:51;;;;;;;9.27;4.53;;;22.30;97.90;;;;;;5028280;28;20029;-64
2021/07/19 06:58:17;;;;;;;7.10;5.30;;;22.10;98.10;;;;;;5029768;28;20029;-63
2021/07/19 07:00:42;;;;;;;12.18;5.82;;;22.00;97.50;;;;;;5028385;28;20033;-61
2021/07/19 07:03:08;;;;;;;10.00;6.43;;;21.90;97.50;;;;;;5029667;28;20152;-63
2021/07/19 07:05:34;;;;;;;12.27;6.55;;;21.90;97.30;;;;;;5024777;28;20025;-63
2021/07/19 07:07:59;;;;;;;10.38;6.30;;;21.70;97.50;;;;;;5031536;28;20130;-62
2021/07/19 07:10:25;;;;;;;11.10;6.93;;;21.80;96.50;;;;;;5024520;28;20715;-62
2021/07/19 07:12:50;;;;;;;11.82;7.20;;;21.70;96.80;;;;;;5030641;28;20022;-63
2021/07/19 07:15:16;;;;;;;9.77;6.75;;;21.60;97.20;;;;;;5026023;28;20033;-64
2021/07/19 07:17:42;;;;;;;11.50;7.45;;;21.50;97.20;;;;;;5025451;28;20505;-63
2021/07/19 07:20:10;;;;;;;8.13;6.03;;;21.50;96.70;;;;;;5010780;28;20506;-62
2021/07/19 07:22:35;;;;;;;12.63;7.18;;;21.30;96.90;;;;;;5028341;28;20048;-62
2021/07/19 07:25:02;;;;;;;14.70;7.50;;;21.30;97.50;;;;;;5030320;28;20033;-63
2021/07/19 07:27:27;;;;;;;10.50;6.93;;;21.30;97.80;;;;;;5024387;28;20505;-63
2021/07/19 07:29:53;;;;;;;12.95;7.55;;;21.80;97.30;;;;;;5025718;28;20068;-64
2021/07/19 07:32:19;;;;;;;10.25;6.70;;;22.00;96.40;;;;;;5028288;28;20018;-63
2021/07/19 07:34:45;;;;;;;9.13;6.15;;;22.70;95.70;;;;;;5027567;28;20028;-63
2021/07/19 07:37:12;;;;;;;11.40;6.57;;;23.30;95.10;;;;;;5029478;28;20026;-63
2021/07/19 07:39:40;;;;;;;10.90;6.60;;;24.00;93.60;;;;;;5027756;28;20126;-63
2021/07/19 07:42:05;;;;;;;8.95;6.95;;;24.00;93.00;;;;;;5028757;28;20095;-64
2021/07/19 07:44:31;;;;;;;11.27;7.32;;;23.60;92.70;;;;;;5026608;28;20482;-62
2021/07/19 07:46:56;;;;;;;12.15;7.43;;;23.10;92.80;;;;;;5025908;28;20879;-63
2021/07/19 07:49:22;;;;;;;9.82;7.38;;;22.80;93.60;;;;;;5024771;28;20120;-64
2021/07/19 07:51:48;;;;;;;11.52;7.88;;;22.60;94.50;;;;;;5026627;28;20136;-62
2021/07/19 07:54:16;;;;;;;17.15;8.48;;;22.30;94.50;;;;;;5028453;28;20026;-60
2021/07/19 07:56:42;;;;;;;10.85;8.18;;;22.30;94.60;;;;;;5011222;28;20021;-63
2021/07/19 07:59:07;;;;;;;13.05;8.25;;;22.30;95.20;;;;;;5025413;28;20424;-63
2021/07/19 08:01:33;;;;;;;16.95;7.90;;;22.40;94.00;;;;;;5027703;28;20033;-62
2021/07/19 08:03:58;;;;;;;12.73;7.70;;;22.30;94.30;;;;;;5027330;28;20036;-62
2021/07/19 08:06:24;;;;;;;12.80;8.70;;;22.20;93.90;;;;;;5030532;28;20088;-63
2021/07/19 08:08:49;;;;;;;12.73;8.85;;;21.90;94.70;;;;;;5024236;28;20120;-64
2021/07/19 08:11:15;;;;;;;17.45;8.50;;;21.90;94.90;;;;;;5026942;28;20022;-62
2021/07/19 08:13:41;;;;;;;12.35;8.45;;;22.10;94.70;;;;;;5025496;28;20079;-62
2021/07/19 08:16:07;;;;;;;9.90;7.93;;;22.20;95.00;;;;;;5028917;28;20033;-62
2021/07/19 08:18:33;;;;;;;11.20;8.45;;;22.30;94.60;;;;;;5020512;28;20056;-62
2021/07/19 08:20:58;;;;;;;11.30;8.00;;;22.30;94.60;;;;;;5010033;28;20072;-63
2021/07/19 08:23:24;;;;;;;10.98;7.45;;;22.40;95.10;;;;;;5009015;28;20556;-62
2021/07/19 08:25:50;;;;;;;10.65;8.60;;;22.40;95.50;;;;;;5029653;28;20033;-63
2021/07/19 08:28:15;;;;;;;11.63;7.22;;;22.40;94.60;;;;;;5024864;28;20030;-62
2021/07/19 08:30:41;;;;;;;12.90;8.10;;;22.70;94.40;;;;;;5026682;28;20040;-63
2021/07/19 08:33:07;;;;;;;11.93;8.25;;;22.90;93.80;;;;;;5028553;28;20029;-64
2021/07/19 08:35:32;;;;;;;11.63;7.90;;;22.30;94.60;;;;;;5027920;28;20085;-62
2021/07/19 08:37:58;;;;;;;12.05;8.27;;;22.40;94.70;;;;;;5024909;28;20021;-63
2021/07/19 08:40:25;;;;;;;16.33;8.88;;;22.30;94.70;;;;;;5026467;28;20028;-61
2021/07/19 08:42:53;;;;;;;12.32;8.57;;;22.30;94.40;;;;;;5009468;28;21740;-62
2021/07/19 08:45:18;;;;;;;13.43;9.20;;;22.40;95.50;;;;;;5026204;28;20033;-62
2021/07/19 08:47:46;;;;;;;15.73;9.98;;;22.60;94.40;;;;;;5028553;28;20028;-63
2021/07/19 08:50:13;;;;;;;13.55;8.85;;;22.40;94.50;;;;;;5020678;28;20060;-63
2021/07/19 08:52:40;;;;;;;11.10;8.65;;;22.60;94.50;;;;;;5024907;28;20038;-62
2021/07/19 08:55:08;;;;;;;10.68;8.43;;;22.70;95.10;;;;;;5024535;28;20140;-63
2021/07/19 08:57:34;;;;;;;13.32;9.35;;;22.60;94.70;;;;;;5026677;28;20021;-62
2021/07/19 09:00:06;;;;;;;16.95;9.75;;;22.90;94.30;;;;;;5022426;28;20033;-62
2021/07/19 09:02:31;;;;;;;12.30;7.95;;;22.50;94.70;;;;;;5026592;28;20038;-62
2021/07/19 09:04:58;;;;;;;14.68;8.98;;;22.60;94.40;;;;;;5029441;28;20078;-63
2021/07/19 09:07:24;;;;;;;15.88;9.05;;;23.00;94.00;;;;;;5027082;28;20487;-62
2021/07/19 09:09:50;;;;;;;13.02;9.45;;;23.20;92.80;;;;;;5025930;28;20033;-62
2021/07/19 09:12:17;;;;;;;13.57;9.40;;;23.50;92.50;;;;;;5027659;28;20051;-62
2021/07/19 09:14:46;;;;;;;16.60;9.88;;;24.50;91.70;;;;;;5026270;28;20025;-63
2021/07/19 09:17:23;;;;;;;14.10;10.18;;;25.40;91.00;;;;;;5028456;28;20017;-63
2021/07/19 09:19:48;;;;;;;13.75;9.80;;;25.80;88.00;;;;;;5010769;28;20018;-62
2021/07/19 09:22:25;;;;;;;16.50;9.02;;;25.70;89.50;;;;;;5023512;28;20988;-60
2021/07/19 09:24:51;;;;;;;11.63;9.20;;;25.80;86.80;;;;;;5020156;28;20029;-62
2021/07/19 09:27:22;;;;;;;16.30;10.32;;;25.60;87.50;;;;;;5022374;28;20517;-62
2021/07/19 09:29:48;;;;;;;13.77;10.10;;;25.30;86.90;;;;;;5023146;28;20130;-62
2021/07/19 09:32:15;;;;;;;12.25;9.68;;;24.90;87.90;;;;;;5021962;28;20434;-59
2021/07/19 09:34:41;;;;;;;16.17;10.57;;;24.50;89.90;;;;;;5031140;28;20032;-62
2021/07/19 09:37:09;;;;;;;13.77;9.20;;;24.20;89.50;;;;;;5023591;28;20467;-62
2021/07/19 09:39:45;;;;;;;14.07;10.20;;;23.50;91.70;;;;;;5026242;28;20032;-63
2021/07/19 09:42:22;;;;;;;13.85;10.13;;;23.70;91.50;;;;;;5006314;28;20033;-62
2021/07/19 09:44:57;;;;;;;13.63;9.63;;;23.80;90.70;;;;;;5024092;28;20083;-64
2021/07/19 09:47:42;;;;;;;17.25;10.52;;;23.60;91.00;;;;;;5026066;28;20033;-62
2021/07/19 09:50:13;;;;;;;14.85;10.38;;;23.40;92.30;;;;;;5023161;28;20156;-63
2021/07/19 09:52:40;;;;;;;18.58;11.00;;;23.80;91.60;;;;;;5029229;28;20513;-63
2021/07/19 09:55:11;;;;;;;14.95;10.13;;;24.10;91.40;;;;;;5027715;28;20028;-63
2021/07/19 09:57:37;;;;;;;13.35;10.15;;;24.00;90.50;;;;;;5026466;28;20038;-63
2021/07/19 10:00:03;;;;;;;14.82;10.57;;;24.00;91.30;;;;;;5026953;28;20022;-61
2021/07/19 10:02:31;;;;;;;19.80;10.25;;;24.00;90.70;;;;;;5035888;28;20045;-62
2021/07/19 10:04:56;;;;;;;14.40;10.73;;;23.10;92.50;;;;;;5025643;28;20039;-63
2021/07/19 10:07:23;;;;;;;15.00;9.95;;;23.20;92.70;;;;;;5026234;28;20100;-64
2021/07/19 10:09:49;;;;;;;14.40;10.82;;;23.60;91.80;;;;;;5019713;28;20058;-63
2021/07/19 10:12:16;;;;;;;17.77;11.32;;;24.00;91.60;;;;;;5030712;28;20033;-62
2021/07/19 10:14:46;;;;;;;16.45;11.68;;;24.40;90.20;;;;;;5029791;28;20152;-63
2021/07/19 10:17:12;;;;;;;15.60;11.05;;;24.30;90.40;;;;;;5029315;28;20092;-62
2021/07/19 10:19:40;;;;;;;17.55;11.45;;;24.60;90.90;;;;;;5028572;28;20029;-64
2021/07/19 10:22:06;;;;;;;16.00;11.43;;;24.90;87.70;;;;;;5030484;28;20414;-62
2021/07/19 10:24:32;;;;;;;15.45;11.48;;;24.70;88.00;;;;;;5024075;28;20022;-63
2021/07/19 10:26:58;;;;;;;16.60;10.95;;;24.50;88.40;;;;;;5013385;28;20509;-63
2021/07/19 10:29:24;;;;;;;17.30;11.45;;;24.10;90.80;;;;;;5024566;28;20068;-61
2021/07/19 10:31:50;;;;;;;15.48;10.52;;;23.60;91.30;;;;;;5029615;28;20036;-63
2021/07/19 10:34:18;;;;;;;16.80;10.98;;;23.30;91.80;;;;;;5031300;28;20021;-61
2021/07/19 10:36:47;;;;;;;13.90;10.80;;;23.40;91.50;;;;;;5030203;28;20032;-63
2021/07/19 10:39:28;;;;;;;17.73;11.43;;;23.30;92.10;;;;;;5030201;28;20590;-62
2021/07/19 10:42:03;;;;;;;14.30;10.75;;;23.20;91.90;;;;;;5025744;28;20128;-64
2021/07/19 10:44:33;;;;;;;15.40;11.23;;;23.20;93.40;;;;;;5027740;28;20109;-63
2021/07/19 10:47:14;;;;;;;15.20;10.77;;;23.20;92.30;;;;;;5031170;28;20032;-64
2021/07/19 10:49:43;;;;;;;18.08;10.98;;;23.20;92.00;;;;;;5025598;28;20032;-63
2021/07/19 10:52:10;;;;;;;20.13;11.15;;;23.30;91.60;;;;;;5021631;28;20064;-63
2021/07/19 10:54:49;;;;;;;17.65;11.60;;;23.40;92.10;;;;;;5028169;28;20034;-64
2021/07/19 10:57:17;;;;;;;17.05;11.45;;;23.20;92.40;;;;;;5029538;28;20101;-64
2021/07/19 10:59:44;;;;;;;16.77;11.27;;;22.80;92.70;;;;;;5024971;28;20037;-64
2021/07/19 11:02:26;;;;;;;16.42;11.68;;;23.10;92.80;;;;;;5028109;28;20124;-64
2021/07/19 11:04:51;;;;;;;17.17;11.90;;;23.50;92.00;;;;;;5025831;28;20030;-63
2021/07/19 11:07:17;;;;;;;14.55;11.27;;;23.90;91.90;;;;;;5030083;28;20029;-63
2021/07/19 11:09:43;;;;;;;18.75;12.10;;;23.90;90.80;;;;;;5029715;28;20435;-64
2021/07/19 11:12:16;;;;;;;17.45;11.20;;;23.80;90.70;;;;;;5026585;28;20037;-63
2021/07/19 11:14:43;;;;;;;18.23;11.23;;;24.00;91.50;;;;;;5028126;28;20025;-63
2021/07/19 11:17:09;;;;;;;14.68;10.98;;;24.00;91.10;;;;;;5022623;28;20423;-64
2021/07/19 11:19:41;;;;;;;21.60;11.50;;;24.00;90.70;;;;;;5026017;28;20026;-63
2021/07/19 11:22:12;;;;;;;17.15;11.02;;;23.80;91.70;;;;;;5013413;28;20099;-64
2021/07/19 11:24:43;;;;;;;18.65;11.43;;;23.70;91.30;;;;;;5013101;28;20124;-64
2021/07/19 11:27:10;;;;;;;14.18;10.65;;;23.50;91.80;;;;;;5030405;28;20033;-63
2021/07/19 11:29:38;;;;;;;15.65;11.05;;;23.40;92.10;;;;;;5026204;28;20038;-64
2021/07/19 11:32:27;;;;;;;15.90;11.25;;;23.20;92.40;;;;;;5021273;28;20384;-64
2021/07/19 11:35:17;;;;;;;19.38;12.75;;;23.30;91.80;;;;;;5031038;28;20029;-63
2021/07/19 11:37:56;;;;;;;18.90;12.10;;;23.30;91.30;;;;;;5019793;28;20384;-63
2021/07/19 11:40:30;;;;;;;21.98;12.07;;;23.30;91.40;;;;;;5024625;28;20048;-63
2021/07/19 11:43:08;;;;;;;20.48;11.65;;;23.30;91.10;;;;;;5004310;28;20037;-63
2021/07/19 11:45:39;;;;;;;18.05;11.15;;;23.50;91.80;;;;;;5029055;28;20029;-63
2021/07/19 11:48:06;;;;;;;18.10;12.27;;;23.70;91.60;;;;;;5029160;28;20072;-63
2021/07/19 11:50:32;;;;;;;16.40;12.00;;;23.90;90.90;;;;;;5029948;28;20025;-64
2021/07/19 11:52:58;;;;;;;15.88;11.63;;;23.60;91.30;;;;;;5028352;28;20572;-64
2021/07/19 11:55:24;;;;;;;19.08;13.18;;;24.00;91.10;;;;;;5028646;28;20083;-64
2021/07/19 11:57:51;;;;;;;16.55;12.40;;;23.90;90.60;;;;;;5029180;28;20024;-62
2021/07/19 12:00:32;;;;;;;16.10;12.45;;;24.10;91.50;;;;;;5025202;28;20013;-63
2021/07/19 12:02:58;;;;;;;17.77;12.50;;;24.10;91.10;;;;;;5027527;28;20029;-63
2021/07/19 12:05:24;;;;;;;14.20;11.60;;;24.00;91.10;;;;;;5027814;28;20544;-63
2021/07/19 12:08:06;;;;;;;23.23;12.88;;;24.00;90.90;;;;;;5028532;28;20041;-63
2021/07/19 12:10:34;;;;;;;16.70;11.60;;;23.40;91.80;;;;;;5024177;28;20087;-63
2021/07/19 12:13:30;;;;;;;15.40;11.93;;;23.70;91.70;;;;;;5026755;28;20495;-63
2021/07/19 12:15:56;;;;;;;17.98;12.93;;;23.80;91.30;;;;;;5027054;28;20088;-64
2021/07/19 12:18:30;;;;;;;16.70;12.07;;;23.50;91.60;;;;;;5026556;28;20033;-63
2021/07/19 12:21:02;;;;;;;18.58;12.98;;;23.60;92.20;;;;;;5011436;28;20053;-64
2021/07/19 12:23:47;;;;;;;17.35;13.73;;;23.30;92.50;;;;;;5018790;28;20037;-63
2021/07/19 12:26:30;;;;;;;16.35;12.93;;;23.30;92.20;;;;;;5027314;28;20405;-63
2021/07/19 12:28:59;;;;;;;18.05;13.05;;;23.20;92.80;;;;;;5024658;28;20049;-62
2021/07/19 12:31:29;;;;;;;21.15;13.38;;;23.10;92.40;;;;;;5027307;28;20510;-63
2021/07/19 12:33:58;;;;;;;16.42;12.80;;;23.40;92.50;;;;;;5027474;28;20534;-63
2021/07/19 12:36:24;;;;;;;17.88;13.20;;;23.50;92.30;;;;;;5021626;28;20037;-63
2021/07/19 12:38:50;;;;;;;20.08;12.60;;;23.80;91.00;;;;;;5004222;28;20402;-63
2021/07/19 12:41:17;;;;;;;20.05;14.10;;;23.70;91.70;;;;;;5017408;28;20030;-63
2021/07/19 12:43:44;;;;;;;19.33;14.00;;;23.90;92.60;;;;;;5028045;28;20044;-64